Aviation Digital Data Service (ADDS)

Output produced by METARs form (0927 UTC 19 April 2014)
found at http://www.aviationweather.gov/adds/metars/
 
KPHL 190902Z 1909/2012 24004KT P6SM OVC250 
     FM191000 31005KT P6SM SCT250 
     FM191500 34012G16KT P6SM SCT250 
     FM192200 36010KT P6SM SCT250 
     FM200100 01006KT P6SM SCT250